sensor_id;sensor_type;location;lat;lon;timestamp;P1;durP1;ratioP1;P2;durP2;ratioP2
54452;SDS011;40363;52.270;10.546;2023-08-06T00:00:12;4.93;;;3.15;;
54452;SDS011;40363;52.270;10.546;2023-08-06T00:02:43;5.43;;;3.53;;
54452;SDS011;40363;52.270;10.546;2023-08-06T00:05:10;3.47;;;2.40;;
54452;SDS011;40363;52.270;10.546;2023-08-06T00:07:43;3.83;;;2.78;;
54452;SDS011;40363;52.270;10.546;2023-08-06T00:10:09;5.60;;;3.28;;
54452;SDS011;40363;52.270;10.546;2023-08-06T00:12:36;6.00;;;3.33;;
54452;SDS011;40363;52.270;10.546;2023-08-06T00:15:03;4.72;;;4.10;;
54452;SDS011;40363;52.270;10.546;2023-08-06T00:17:34;5.43;;;3.90;;
54452;SDS011;40363;52.270;10.546;2023-08-06T00:20:05;4.03;;;3.05;;
54452;SDS011;40363;52.270;10.546;2023-08-06T00:22:36;4.53;;;2.97;;
54452;SDS011;40363;52.270;10.546;2023-08-06T00:25:05;4.95;;;3.55;;
54452;SDS011;40363;52.270;10.546;2023-08-06T00:27:36;5.50;;;3.20;;
54452;SDS011;40363;52.270;10.546;2023-08-06T00:30:08;5.03;;;3.55;;
54452;SDS011;40363;52.270;10.546;2023-08-06T00:32:39;3.75;;;3.00;;
54452;SDS011;40363;52.270;10.546;2023-08-06T00:35:16;5.57;;;3.08;;
54452;SDS011;40363;52.270;10.546;2023-08-06T00:37:49;5.75;;;3.25;;
54452;SDS011;40363;52.270;10.546;2023-08-06T00:40:16;3.88;;;2.58;;
54452;SDS011;40363;52.270;10.546;2023-08-06T00:42:46;3.95;;;2.58;;
54452;SDS011;40363;52.270;10.546;2023-08-06T00:45:16;4.05;;;2.45;;
54452;SDS011;40363;52.270;10.546;2023-08-06T00:47:55;4.70;;;2.80;;
54452;SDS011;40363;52.270;10.546;2023-08-06T00:50:28;4.72;;;2.60;;
54452;SDS011;40363;52.270;10.546;2023-08-06T00:52:55;4.95;;;2.70;;
54452;SDS011;40363;52.270;10.546;2023-08-06T00:55:24;4.10;;;2.75;;
54452;SDS011;40363;52.270;10.546;2023-08-06T00:57:54;3.72;;;2.35;;
54452;SDS011;40363;52.270;10.546;2023-08-06T01:00:26;4.13;;;2.27;;
54452;SDS011;40363;52.270;10.546;2023-08-06T01:03:00;7.28;;;3.25;;
54452;SDS011;40363;52.270;10.546;2023-08-06T01:05:31;3.35;;;2.47;;
54452;SDS011;40363;52.270;10.546;2023-08-06T01:08:10;3.47;;;2.80;;
54452;SDS011;40363;52.270;10.546;2023-08-06T01:10:53;3.45;;;2.42;;
54452;SDS011;40363;52.270;10.546;2023-08-06T01:13:33;3.67;;;2.47;;
54452;SDS011;40363;52.270;10.546;2023-08-06T01:16:11;4.47;;;2.00;;
54452;SDS011;40363;52.270;10.546;2023-08-06T01:18:46;2.95;;;1.83;;
54452;SDS011;40363;52.270;10.546;2023-08-06T01:21:16;3.95;;;1.95;;
54452;SDS011;40363;52.270;10.546;2023-08-06T01:23:43;3.40;;;2.53;;
54452;SDS011;40363;52.270;10.546;2023-08-06T01:26:19;3.03;;;1.80;;
54452;SDS011;40363;52.270;10.546;2023-08-06T01:31:24;2.42;;;1.48;;
54452;SDS011;40363;52.270;10.546;2023-08-06T01:34:20;2.67;;;1.95;;
54452;SDS011;40363;52.270;10.546;2023-08-06T01:37:08;4.88;;;2.17;;
54452;SDS011;40363;52.270;10.546;2023-08-06T01:39:42;2.75;;;2.05;;
54452;SDS011;40363;52.270;10.546;2023-08-06T01:42:17;2.63;;;1.75;;
54452;SDS011;40363;52.270;10.546;2023-08-06T01:44:49;4.10;;;2.08;;
54452;SDS011;40363;52.270;10.546;2023-08-06T01:47:20;4.22;;;2.38;;
54452;SDS011;40363;52.270;10.546;2023-08-06T01:49:53;4.65;;;2.70;;
54452;SDS011;40363;52.270;10.546;2023-08-06T01:52:31;5.35;;;2.53;;
54452;SDS011;40363;52.270;10.546;2023-08-06T01:54:59;4.43;;;2.65;;
54452;SDS011;40363;52.270;10.546;2023-08-06T01:57:26;5.15;;;3.10;;
54452;SDS011;40363;52.270;10.546;2023-08-06T01:59:55;4.50;;;3.33;;
54452;SDS011;40363;52.270;10.546;2023-08-06T02:02:23;4.82;;;2.70;;
54452;SDS011;40363;52.270;10.546;2023-08-06T02:04:59;5.00;;;3.33;;
54452;SDS011;40363;52.270;10.546;2023-08-06T02:07:38;5.22;;;3.00;;
54452;SDS011;40363;52.270;10.546;2023-08-06T02:10:07;5.10;;;3.42;;
54452;SDS011;40363;52.270;10.546;2023-08-06T02:12:48;5.43;;;3.17;;
54452;SDS011;40363;52.270;10.546;2023-08-06T02:15:36;6.00;;;3.17;;
54452;SDS011;40363;52.270;10.546;2023-08-06T02:18:09;4.40;;;3.05;;
54452;SDS011;40363;52.270;10.546;2023-08-06T02:20:36;7.93;;;3.40;;
54452;SDS011;40363;52.270;10.546;2023-08-06T02:23:04;7.15;;;3.58;;
54452;SDS011;40363;52.270;10.546;2023-08-06T02:25:30;5.35;;;3.00;;
54452;SDS011;40363;52.270;10.546;2023-08-06T02:28:04;4.40;;;3.35;;
54452;SDS011;40363;52.270;10.546;2023-08-06T02:30:37;7.72;;;3.65;;
54452;SDS011;40363;52.270;10.546;2023-08-06T02:33:14;5.65;;;3.85;;
54452;SDS011;40363;52.270;10.546;2023-08-06T02:35:44;4.88;;;3.22;;
54452;SDS011;40363;52.270;10.546;2023-08-06T02:38:17;3.92;;;3.10;;
54452;SDS011;40363;52.270;10.546;2023-08-06T02:40:47;7.78;;;3.58;;
54452;SDS011;40363;52.270;10.546;2023-08-06T02:43:17;6.65;;;3.70;;
54452;SDS011;40363;52.270;10.546;2023-08-06T02:45:46;7.57;;;3.17;;
54452;SDS011;40363;52.270;10.546;2023-08-06T02:48:15;5.72;;;3.28;;
54452;SDS011;40363;52.270;10.546;2023-08-06T02:50:48;4.38;;;3.08;;
54452;SDS011;40363;52.270;10.546;2023-08-06T02:53:21;5.68;;;3.65;;
54452;SDS011;40363;52.270;10.546;2023-08-06T02:55:54;4.78;;;3.00;;
54452;SDS011;40363;52.270;10.546;2023-08-06T02:58:27;4.90;;;3.20;;
54452;SDS011;40363;52.270;10.546;2023-08-06T03:01:03;7.00;;;3.35;;
54452;SDS011;40363;52.270;10.546;2023-08-06T03:03:33;7.75;;;3.25;;
54452;SDS011;40363;52.270;10.546;2023-08-06T03:06:02;5.55;;;3.13;;
54452;SDS011;40363;52.270;10.546;2023-08-06T03:08:33;4.68;;;3.50;;
54452;SDS011;40363;52.270;10.546;2023-08-06T03:11:03;5.20;;;3.20;;
54452;SDS011;40363;52.270;10.546;2023-08-06T03:13:30;5.05;;;3.25;;
54452;SDS011;40363;52.270;10.546;2023-08-06T03:15:59;5.35;;;3.22;;
54452;SDS011;40363;52.270;10.546;2023-08-06T03:18:29;6.72;;;3.60;;
54452;SDS011;40363;52.270;10.546;2023-08-06T03:21:03;6.63;;;3.88;;
54452;SDS011;40363;52.270;10.546;2023-08-06T03:23:31;8.50;;;3.38;;
54452;SDS011;40363;52.270;10.546;2023-08-06T03:26:02;5.05;;;3.13;;
54452;SDS011;40363;52.270;10.546;2023-08-06T03:28:34;4.60;;;3.28;;
54452;SDS011;40363;52.270;10.546;2023-08-06T03:31:03;10.02;;;3.45;;
54452;SDS011;40363;52.270;10.546;2023-08-06T03:33:33;5.50;;;3.53;;
54452;SDS011;40363;52.270;10.546;2023-08-06T03:36:00;6.65;;;3.58;;
54452;SDS011;40363;52.270;10.546;2023-08-06T03:38:27;4.15;;;3.10;;
54452;SDS011;40363;52.270;10.546;2023-08-06T03:40:56;6.13;;;3.95;;
54452;SDS011;40363;52.270;10.546;2023-08-06T03:43:24;5.43;;;3.15;;
54452;SDS011;40363;52.270;10.546;2023-08-06T03:45:55;11.07;;;3.70;;
54452;SDS011;40363;52.270;10.546;2023-08-06T03:48:38;5.13;;;3.03;;
54452;SDS011;40363;52.270;10.546;2023-08-06T03:51:04;5.78;;;3.88;;
54452;SDS011;40363;52.270;10.546;2023-08-06T03:53:38;8.45;;;3.70;;
54452;SDS011;40363;52.270;10.546;2023-08-06T03:56:06;7.28;;;4.05;;
54452;SDS011;40363;52.270;10.546;2023-08-06T03:58:32;8.27;;;4.18;;
54452;SDS011;40363;52.270;10.546;2023-08-06T04:01:07;7.03;;;4.25;;
54452;SDS011;40363;52.270;10.546;2023-08-06T04:03:41;5.68;;;3.80;;
54452;SDS011;40363;52.270;10.546;2023-08-06T04:06:08;6.45;;;3.45;;
54452;SDS011;40363;52.270;10.546;2023-08-06T04:08:35;6.78;;;4.00;;
54452;SDS011;40363;52.270;10.546;2023-08-06T04:11:05;6.40;;;3.30;;
54452;SDS011;40363;52.270;10.546;2023-08-06T04:13:44;5.28;;;3.30;;
54452;SDS011;40363;52.270;10.546;2023-08-06T04:16:13;6.25;;;3.42;;
54452;SDS011;40363;52.270;10.546;2023-08-06T04:18:41;9.63;;;3.78;;
54452;SDS011;40363;52.270;10.546;2023-08-06T04:21:12;5.63;;;3.90;;
54452;SDS011;40363;52.270;10.546;2023-08-06T04:23:46;7.25;;;3.95;;
54452;SDS011;40363;52.270;10.546;2023-08-06T04:26:14;5.65;;;3.25;;
54452;SDS011;40363;52.270;10.546;2023-08-06T04:28:46;5.78;;;3.05;;
54452;SDS011;40363;52.270;10.546;2023-08-06T04:31:14;5.90;;;3.40;;
54452;SDS011;40363;52.270;10.546;2023-08-06T04:33:43;6.55;;;3.75;;
54452;SDS011;40363;52.270;10.546;2023-08-06T04:36:12;8.27;;;3.88;;
54452;SDS011;40363;52.270;10.546;2023-08-06T04:38:43;9.95;;;4.63;;
54452;SDS011;40363;52.270;10.546;2023-08-06T04:41:12;5.22;;;3.80;;
54452;SDS011;40363;52.270;10.546;2023-08-06T04:43:40;7.15;;;4.18;;
54452;SDS011;40363;52.270;10.546;2023-08-06T04:46:09;7.90;;;4.05;;
54452;SDS011;40363;52.270;10.546;2023-08-06T04:48:35;9.30;;;4.57;;
54452;SDS011;40363;52.270;10.546;2023-08-06T04:51:02;9.05;;;4.20;;
54452;SDS011;40363;52.270;10.546;2023-08-06T04:53:29;7.32;;;4.47;;
54452;SDS011;40363;52.270;10.546;2023-08-06T04:55:55;8.35;;;4.68;;
54452;SDS011;40363;52.270;10.546;2023-08-06T04:58:22;6.20;;;4.28;;
54452;SDS011;40363;52.270;10.546;2023-08-06T05:00:50;6.35;;;4.20;;
54452;SDS011;40363;52.270;10.546;2023-08-06T05:03:16;6.53;;;3.95;;
54452;SDS011;40363;52.270;10.546;2023-08-06T05:05:43;6.25;;;3.55;;
54452;SDS011;40363;52.270;10.546;2023-08-06T05:08:13;7.03;;;3.85;;
54452;SDS011;40363;52.270;10.546;2023-08-06T05:10:42;6.68;;;4.13;;
54452;SDS011;40363;52.270;10.546;2023-08-06T05:13:09;7.05;;;3.80;;
54452;SDS011;40363;52.270;10.546;2023-08-06T05:15:35;6.78;;;3.67;;
54452;SDS011;40363;52.270;10.546;2023-08-06T05:18:03;7.65;;;4.28;;
54452;SDS011;40363;52.270;10.546;2023-08-06T05:20:30;5.88;;;3.33;;
54452;SDS011;40363;52.270;10.546;2023-08-06T05:22:57;6.25;;;2.83;;
54452;SDS011;40363;52.270;10.546;2023-08-06T05:25:23;6.45;;;3.67;;
54452;SDS011;40363;52.270;10.546;2023-08-06T05:27:50;7.32;;;3.40;;
54452;SDS011;40363;52.270;10.546;2023-08-06T05:30:16;8.10;;;4.70;;
54452;SDS011;40363;52.270;10.546;2023-08-06T05:32:43;4.85;;;3.20;;
54452;SDS011;40363;52.270;10.546;2023-08-06T05:35:11;5.75;;;3.33;;
54452;SDS011;40363;52.270;10.546;2023-08-06T05:37:38;5.28;;;3.20;;
54452;SDS011;40363;52.270;10.546;2023-08-06T05:40:05;4.43;;;3.00;;
54452;SDS011;40363;52.270;10.546;2023-08-06T05:42:32;4.60;;;2.70;;
54452;SDS011;40363;52.270;10.546;2023-08-06T05:44:58;4.90;;;3.25;;
54452;SDS011;40363;52.270;10.546;2023-08-06T05:47:25;5.68;;;3.50;;
54452;SDS011;40363;52.270;10.546;2023-08-06T05:49:52;5.07;;;3.45;;
54452;SDS011;40363;52.270;10.546;2023-08-06T05:52:20;4.57;;;3.10;;
54452;SDS011;40363;52.270;10.546;2023-08-06T05:54:46;5.97;;;3.20;;
54452;SDS011;40363;52.270;10.546;2023-08-06T05:57:13;4.47;;;3.00;;
54452;SDS011;40363;52.270;10.546;2023-08-06T05:59:40;4.35;;;2.83;;
54452;SDS011;40363;52.270;10.546;2023-08-06T06:02:07;6.18;;;3.13;;
54452;SDS011;40363;52.270;10.546;2023-08-06T06:04:33;4.85;;;3.03;;
54452;SDS011;40363;52.270;10.546;2023-08-06T06:07:00;5.47;;;4.05;;
54452;SDS011;40363;52.270;10.546;2023-08-06T06:09:28;4.60;;;2.97;;
54452;SDS011;40363;52.270;10.546;2023-08-06T06:11:55;5.30;;;2.88;;
54452;SDS011;40363;52.270;10.546;2023-08-06T06:14:21;5.40;;;2.70;;
54452;SDS011;40363;52.270;10.546;2023-08-06T06:16:48;3.95;;;2.75;;
54452;SDS011;40363;52.270;10.546;2023-08-06T06:19:15;4.93;;;3.30;;
54452;SDS011;40363;52.270;10.546;2023-08-06T06:21:41;4.50;;;2.90;;
54452;SDS011;40363;52.270;10.546;2023-08-06T06:24:08;5.15;;;2.67;;
54452;SDS011;40363;52.270;10.546;2023-08-06T06:26:36;5.90;;;2.70;;
54452;SDS011;40363;52.270;10.546;2023-08-06T06:29:02;6.47;;;2.33;;
54452;SDS011;40363;52.270;10.546;2023-08-06T06:31:29;5.60;;;2.53;;
54452;SDS011;40363;52.270;10.546;2023-08-06T06:33:55;3.83;;;2.53;;
54452;SDS011;40363;52.270;10.546;2023-08-06T06:36:22;7.28;;;2.67;;
54452;SDS011;40363;52.270;10.546;2023-08-06T06:38:49;3.30;;;2.30;;
54452;SDS011;40363;52.270;10.546;2023-08-06T06:41:16;3.42;;;2.17;;
54452;SDS011;40363;52.270;10.546;2023-08-06T06:43:44;4.60;;;2.55;;
54452;SDS011;40363;52.270;10.546;2023-08-06T06:46:10;4.45;;;2.13;;
54452;SDS011;40363;52.270;10.546;2023-08-06T06:48:37;4.50;;;1.90;;
54452;SDS011;40363;52.270;10.546;2023-08-06T06:51:04;4.85;;;2.03;;
54452;SDS011;40363;52.270;10.546;2023-08-06T06:53:30;4.40;;;2.03;;
54452;SDS011;40363;52.270;10.546;2023-08-06T06:56:01;3.60;;;2.97;;
54452;SDS011;40363;52.270;10.546;2023-08-06T06:58:29;6.72;;;2.08;;
54452;SDS011;40363;52.270;10.546;2023-08-06T07:00:57;3.33;;;2.35;;
54452;SDS011;40363;52.270;10.546;2023-08-06T07:03:24;4.30;;;2.40;;
54452;SDS011;40363;52.270;10.546;2023-08-06T07:05:51;2.47;;;1.48;;
54452;SDS011;40363;52.270;10.546;2023-08-06T07:08:17;2.97;;;1.70;;
54452;SDS011;40363;52.270;10.546;2023-08-06T07:10:44;2.28;;;1.58;;
54452;SDS011;40363;52.270;10.546;2023-08-06T07:13:11;1.98;;;1.38;;
54452;SDS011;40363;52.270;10.546;2023-08-06T07:15:38;2.67;;;1.38;;
54452;SDS011;40363;52.270;10.546;2023-08-06T07:18:06;2.15;;;1.38;;
54452;SDS011;40363;52.270;10.546;2023-08-06T07:20:32;2.10;;;1.10;;
54452;SDS011;40363;52.270;10.546;2023-08-06T07:22:59;2.35;;;1.50;;
54452;SDS011;40363;52.270;10.546;2023-08-06T07:25:26;1.90;;;0.98;;
54452;SDS011;40363;52.270;10.546;2023-08-06T07:27:53;2.38;;;1.27;;
54452;SDS011;40363;52.270;10.546;2023-08-06T07:30:21;1.67;;;1.10;;
54452;SDS011;40363;52.270;10.546;2023-08-06T07:32:48;2.80;;;1.30;;
54452;SDS011;40363;52.270;10.546;2023-08-06T07:35:16;4.93;;;1.02;;
54452;SDS011;40363;52.270;10.546;2023-08-06T07:37:43;1.08;;;0.82;;
54452;SDS011;40363;52.270;10.546;2023-08-06T07:40:10;1.05;;;0.70;;
54452;SDS011;40363;52.270;10.546;2023-08-06T07:42:37;0.80;;;0.50;;
54452;SDS011;40363;52.270;10.546;2023-08-06T07:45:04;0.88;;;0.50;;
54452;SDS011;40363;52.270;10.546;2023-08-06T07:47:31;1.88;;;1.08;;
54452;SDS011;40363;52.270;10.546;2023-08-06T07:49:58;2.63;;;1.00;;
54452;SDS011;40363;52.270;10.546;2023-08-06T07:52:26;1.23;;;1.10;;
54452;SDS011;40363;52.270;10.546;2023-08-06T07:54:52;2.35;;;1.30;;
54452;SDS011;40363;52.270;10.546;2023-08-06T07:57:19;3.25;;;0.95;;
54452;SDS011;40363;52.270;10.546;2023-08-06T07:59:45;1.85;;;1.23;;
54452;SDS011;40363;52.270;10.546;2023-08-06T08:02:12;2.55;;;1.38;;
54452;SDS011;40363;52.270;10.546;2023-08-06T08:04:38;2.00;;;1.42;;
54452;SDS011;40363;52.270;10.546;2023-08-06T08:07:05;1.55;;;1.20;;
54452;SDS011;40363;52.270;10.546;2023-08-06T08:09:34;2.53;;;1.17;;
54452;SDS011;40363;52.270;10.546;2023-08-06T08:12:00;2.35;;;1.33;;
54452;SDS011;40363;52.270;10.546;2023-08-06T08:14:28;1.85;;;1.30;;
54452;SDS011;40363;52.270;10.546;2023-08-06T08:16:58;3.53;;;1.52;;
54452;SDS011;40363;52.270;10.546;2023-08-06T08:19:25;2.75;;;0.98;;
54452;SDS011;40363;52.270;10.546;2023-08-06T08:21:53;2.55;;;1.33;;
54452;SDS011;40363;52.270;10.546;2023-08-06T08:24:19;1.52;;;1.27;;
54452;SDS011;40363;52.270;10.546;2023-08-06T08:26:50;2.80;;;1.70;;
54452;SDS011;40363;52.270;10.546;2023-08-06T08:29:17;1.92;;;1.10;;
54452;SDS011;40363;52.270;10.546;2023-08-06T08:31:43;1.40;;;1.20;;
54452;SDS011;40363;52.270;10.546;2023-08-06T08:34:10;1.42;;;1.20;;
54452;SDS011;40363;52.270;10.546;2023-08-06T08:36:36;2.75;;;1.15;;
54452;SDS011;40363;52.270;10.546;2023-08-06T08:39:03;2.03;;;1.13;;
54452;SDS011;40363;52.270;10.546;2023-08-06T08:41:30;4.25;;;1.55;;
54452;SDS011;40363;52.270;10.546;2023-08-06T08:43:58;1.77;;;1.15;;
54452;SDS011;40363;52.270;10.546;2023-08-06T08:46:25;4.38;;;1.48;;
54452;SDS011;40363;52.270;10.546;2023-08-06T08:48:53;1.38;;;1.17;;
54452;SDS011;40363;52.270;10.546;2023-08-06T08:51:20;1.55;;;1.20;;
54452;SDS011;40363;52.270;10.546;2023-08-06T08:53:47;2.03;;;1.30;;
54452;SDS011;40363;52.270;10.546;2023-08-06T08:56:16;2.20;;;1.30;;
54452;SDS011;40363;52.270;10.546;2023-08-06T08:58:43;1.63;;;1.38;;
54452;SDS011;40363;52.270;10.546;2023-08-06T09:01:12;1.85;;;1.02;;
54452;SDS011;40363;52.270;10.546;2023-08-06T09:03:39;4.43;;;1.23;;
54452;SDS011;40363;52.270;10.546;2023-08-06T09:06:06;1.63;;;1.40;;
54452;SDS011;40363;52.270;10.546;2023-08-06T09:08:37;1.40;;;1.02;;
54452;SDS011;40363;52.270;10.546;2023-08-06T09:11:08;1.20;;;1.10;;
54452;SDS011;40363;52.270;10.546;2023-08-06T09:13:36;1.50;;;1.30;;
54452;SDS011;40363;52.270;10.546;2023-08-06T09:16:04;1.65;;;0.98;;
54452;SDS011;40363;52.270;10.546;2023-08-06T09:18:32;1.80;;;1.00;;
54452;SDS011;40363;52.270;10.546;2023-08-06T09:20:59;1.02;;;0.90;;
54452;SDS011;40363;52.270;10.546;2023-08-06T09:23:29;1.65;;;1.10;;
54452;SDS011;40363;52.270;10.546;2023-08-06T09:25:56;2.42;;;1.38;;
54452;SDS011;40363;52.270;10.546;2023-08-06T09:28:23;2.20;;;1.10;;
54452;SDS011;40363;52.270;10.546;2023-08-06T09:30:50;3.08;;;1.10;;
54452;SDS011;40363;52.270;10.546;2023-08-06T09:33:20;3.35;;;1.13;;
54452;SDS011;40363;52.270;10.546;2023-08-06T09:35:50;2.85;;;1.10;;
54452;SDS011;40363;52.270;10.546;2023-08-06T09:38:16;1.50;;;0.98;;
54452;SDS011;40363;52.270;10.546;2023-08-06T09:40:43;1.90;;;1.20;;
54452;SDS011;40363;52.270;10.546;2023-08-06T09:43:10;1.23;;;0.90;;
54452;SDS011;40363;52.270;10.546;2023-08-06T09:45:38;1.00;;;0.90;;
54452;SDS011;40363;52.270;10.546;2023-08-06T09:48:05;1.33;;;1.00;;
54452;SDS011;40363;52.270;10.546;2023-08-06T09:50:32;2.15;;;1.20;;
54452;SDS011;40363;52.270;10.546;2023-08-06T09:53:02;1.90;;;1.27;;
54452;SDS011;40363;52.270;10.546;2023-08-06T09:55:30;2.13;;;1.20;;
54452;SDS011;40363;52.270;10.546;2023-08-06T09:57:59;2.08;;;0.90;;
54452;SDS011;40363;52.270;10.546;2023-08-06T10:00:26;1.50;;;0.82;;
54452;SDS011;40363;52.270;10.546;2023-08-06T10:02:54;1.27;;;0.90;;
54452;SDS011;40363;52.270;10.546;2023-08-06T10:05:25;1.30;;;1.10;;
54452;SDS011;40363;52.270;10.546;2023-08-06T10:07:53;1.38;;;0.98;;
54452;SDS011;40363;52.270;10.546;2023-08-06T10:10:22;3.03;;;1.08;;
54452;SDS011;40363;52.270;10.546;2023-08-06T10:12:49;1.85;;;0.90;;
54452;SDS011;40363;52.270;10.546;2023-08-06T10:15:20;1.88;;;1.05;;
54452;SDS011;40363;52.270;10.546;2023-08-06T10:17:51;1.63;;;0.90;;
54452;SDS011;40363;52.270;10.546;2023-08-06T10:20:22;1.67;;;1.00;;
54452;SDS011;40363;52.270;10.546;2023-08-06T10:22:59;1.60;;;1.10;;
54452;SDS011;40363;52.270;10.546;2023-08-06T10:25:28;1.60;;;1.08;;
54452;SDS011;40363;52.270;10.546;2023-08-06T10:27:57;1.63;;;1.10;;
54452;SDS011;40363;52.270;10.546;2023-08-06T10:30:24;3.33;;;1.25;;
54452;SDS011;40363;52.270;10.546;2023-08-06T10:32:52;1.17;;;0.93;;
54452;SDS011;40363;52.270;10.546;2023-08-06T10:35:34;2.28;;;1.20;;
54452;SDS011;40363;52.270;10.546;2023-08-06T10:38:05;1.88;;;1.25;;
54452;SDS011;40363;52.270;10.546;2023-08-06T10:40:34;2.28;;;1.00;;
54452;SDS011;40363;52.270;10.546;2023-08-06T10:43:02;1.13;;;0.90;;
54452;SDS011;40363;52.270;10.546;2023-08-06T10:45:33;2.13;;;1.20;;
54452;SDS011;40363;52.270;10.546;2023-08-06T10:48:01;2.25;;;1.00;;
54452;SDS011;40363;52.270;10.546;2023-08-06T10:50:28;1.10;;;1.00;;
54452;SDS011;40363;52.270;10.546;2023-08-06T10:52:56;1.48;;;0.93;;
54452;SDS011;40363;52.270;10.546;2023-08-06T10:55:24;1.23;;;0.90;;
54452;SDS011;40363;52.270;10.546;2023-08-06T10:57:53;1.65;;;0.93;;
54452;SDS011;40363;52.270;10.546;2023-08-06T11:00:20;2.17;;;1.38;;
54452;SDS011;40363;52.270;10.546;2023-08-06T11:02:49;2.13;;;0.90;;
54452;SDS011;40363;52.270;10.546;2023-08-06T11:05:16;1.70;;;1.00;;
54452;SDS011;40363;52.270;10.546;2023-08-06T11:07:43;2.42;;;1.20;;
54452;SDS011;40363;52.270;10.546;2023-08-06T11:10:10;1.20;;;1.08;;
54452;SDS011;40363;52.270;10.546;2023-08-06T11:12:38;1.48;;;1.00;;
54452;SDS011;40363;52.270;10.546;2023-08-06T11:15:07;2.58;;;1.30;;
54452;SDS011;40363;52.270;10.546;2023-08-06T11:17:34;3.15;;;0.98;;
54452;SDS011;40363;52.270;10.546;2023-08-06T11:20:02;1.90;;;1.13;;
54452;SDS011;40363;52.270;10.546;2023-08-06T11:22:30;1.20;;;0.90;;
54452;SDS011;40363;52.270;10.546;2023-08-06T11:24:57;1.58;;;1.00;;
54452;SDS011;40363;52.270;10.546;2023-08-06T11:27:26;1.35;;;1.15;;
54452;SDS011;40363;52.270;10.546;2023-08-06T11:29:54;1.13;;;0.80;;
54452;SDS011;40363;52.270;10.546;2023-08-06T11:32:22;1.25;;;1.00;;
54452;SDS011;40363;52.270;10.546;2023-08-06T11:34:49;1.85;;;1.42;;
54452;SDS011;40363;52.270;10.546;2023-08-06T11:37:16;1.63;;;1.02;;
54452;SDS011;40363;52.270;10.546;2023-08-06T11:39:49;1.25;;;1.10;;
54452;SDS011;40363;52.270;10.546;2023-08-06T11:42:16;1.50;;;1.08;;
54452;SDS011;40363;52.270;10.546;2023-08-06T11:44:43;1.50;;;1.08;;
54452;SDS011;40363;52.270;10.546;2023-08-06T11:47:12;2.38;;;1.98;;
54452;SDS011;40363;52.270;10.546;2023-08-06T11:49:42;1.73;;;1.10;;
54452;SDS011;40363;52.270;10.546;2023-08-06T11:52:13;1.67;;;1.20;;
54452;SDS011;40363;52.270;10.546;2023-08-06T11:54:43;1.20;;;1.00;;
54452;SDS011;40363;52.270;10.546;2023-08-06T11:57:10;2.72;;;1.05;;
54452;SDS011;40363;52.270;10.546;2023-08-06T11:59:38;2.10;;;1.23;;
54452;SDS011;40363;52.270;10.546;2023-08-06T12:02:07;1.63;;;1.10;;
54452;SDS011;40363;52.270;10.546;2023-08-06T12:07:29;1.73;;;1.02;;
54452;SDS011;40363;52.270;10.546;2023-08-06T12:09:56;2.33;;;1.30;;
54452;SDS011;40363;52.270;10.546;2023-08-06T12:12:23;3.00;;;1.20;;
54452;SDS011;40363;52.270;10.546;2023-08-06T12:14:50;1.42;;;1.25;;
54452;SDS011;40363;52.270;10.546;2023-08-06T12:17:17;1.40;;;1.17;;
54452;SDS011;40363;52.270;10.546;2023-08-06T12:19:44;2.70;;;1.30;;
54452;SDS011;40363;52.270;10.546;2023-08-06T12:22:13;3.28;;;1.23;;
54452;SDS011;40363;52.270;10.546;2023-08-06T12:24:40;2.00;;;1.30;;
54452;SDS011;40363;52.270;10.546;2023-08-06T12:27:07;1.30;;;1.10;;
54452;SDS011;40363;52.270;10.546;2023-08-06T12:29:34;2.53;;;1.20;;
54452;SDS011;40363;52.270;10.546;2023-08-06T12:32:00;1.35;;;1.10;;
54452;SDS011;40363;52.270;10.546;2023-08-06T12:34:27;4.80;;;1.25;;
54452;SDS011;40363;52.270;10.546;2023-08-06T12:36:54;3.05;;;1.15;;
54452;SDS011;40363;52.270;10.546;2023-08-06T12:39:22;2.30;;;1.30;;
54452;SDS011;40363;52.270;10.546;2023-08-06T12:41:48;1.88;;;1.10;;
54452;SDS011;40363;52.270;10.546;2023-08-06T12:44:15;1.80;;;1.30;;
54452;SDS011;40363;52.270;10.546;2023-08-06T12:46:42;3.35;;;2.10;;
54452;SDS011;40363;52.270;10.546;2023-08-06T12:49:08;1.27;;;1.10;;
54452;SDS011;40363;52.270;10.546;2023-08-06T12:51:35;1.40;;;1.20;;
54452;SDS011;40363;52.270;10.546;2023-08-06T12:54:02;4.55;;;1.23;;
54452;SDS011;40363;52.270;10.546;2023-08-06T12:56:30;1.83;;;1.15;;
54452;SDS011;40363;52.270;10.546;2023-08-06T12:58:56;1.73;;;1.10;;
54452;SDS011;40363;52.270;10.546;2023-08-06T13:01:23;2.70;;;1.23;;
54452;SDS011;40363;52.270;10.546;2023-08-06T13:03:49;0.80;;;0.80;;
54452;SDS011;40363;52.270;10.546;2023-08-06T13:06:16;1.40;;;1.13;;
54452;SDS011;40363;52.270;10.546;2023-08-06T13:08:43;1.23;;;0.93;;
54452;SDS011;40363;52.270;10.546;2023-08-06T13:11:09;1.55;;;1.15;;
54452;SDS011;40363;52.270;10.546;2023-08-06T13:13:37;2.58;;;1.65;;
54452;SDS011;40363;52.270;10.546;2023-08-06T13:16:04;1.63;;;1.08;;
54452;SDS011;40363;52.270;10.546;2023-08-06T13:18:31;2.50;;;1.00;;
54452;SDS011;40363;52.270;10.546;2023-08-06T13:20:57;1.88;;;1.27;;
54452;SDS011;40363;52.270;10.546;2023-08-06T13:23:24;1.63;;;1.20;;
54452;SDS011;40363;52.270;10.546;2023-08-06T13:25:51;1.23;;;0.70;;
54452;SDS011;40363;52.270;10.546;2023-08-06T13:28:17;1.92;;;1.10;;
54452;SDS011;40363;52.270;10.546;2023-08-06T13:30:45;2.05;;;1.30;;
54452;SDS011;40363;52.270;10.546;2023-08-06T13:33:12;2.08;;;0.95;;
54452;SDS011;40363;52.270;10.546;2023-08-06T13:35:39;1.67;;;1.02;;
54452;SDS011;40363;52.270;10.546;2023-08-06T13:38:06;1.35;;;1.20;;
54452;SDS011;40363;52.270;10.546;2023-08-06T13:40:33;2.10;;;0.77;;
54452;SDS011;40363;52.270;10.546;2023-08-06T13:43:00;1.27;;;1.10;;
54452;SDS011;40363;52.270;10.546;2023-08-06T13:45:27;1.63;;;1.00;;
54452;SDS011;40363;52.270;10.546;2023-08-06T13:47:55;2.30;;;1.30;;
54452;SDS011;40363;52.270;10.546;2023-08-06T13:50:21;1.80;;;1.00;;
54452;SDS011;40363;52.270;10.546;2023-08-06T13:52:50;1.25;;;1.10;;
54452;SDS011;40363;52.270;10.546;2023-08-06T13:55:18;3.60;;;1.42;;
54452;SDS011;40363;52.270;10.546;2023-08-06T13:57:44;1.23;;;0.70;;
54452;SDS011;40363;52.270;10.546;2023-08-06T14:00:11;2.47;;;1.00;;
54452;SDS011;40363;52.270;10.546;2023-08-06T14:02:39;2.47;;;1.30;;
54452;SDS011;40363;52.270;10.546;2023-08-06T14:05:07;2.33;;;1.02;;
54452;SDS011;40363;52.270;10.546;2023-08-06T14:07:34;1.85;;;1.30;;
54452;SDS011;40363;52.270;10.546;2023-08-06T14:10:01;3.08;;;1.15;;
54452;SDS011;40363;52.270;10.546;2023-08-06T14:12:27;1.25;;;1.00;;
54452;SDS011;40363;52.270;10.546;2023-08-06T14:14:54;2.45;;;1.05;;
54452;SDS011;40363;52.270;10.546;2023-08-06T14:17:21;1.80;;;0.98;;
54452;SDS011;40363;52.270;10.546;2023-08-06T14:19:48;2.63;;;1.10;;
54452;SDS011;40363;52.270;10.546;2023-08-06T14:22:16;1.88;;;1.20;;
54452;SDS011;40363;52.270;10.546;2023-08-06T14:24:43;1.88;;;0.90;;
54452;SDS011;40363;52.270;10.546;2023-08-06T14:27:09;1.40;;;1.02;;
54452;SDS011;40363;52.270;10.546;2023-08-06T14:29:36;1.85;;;0.95;;
54452;SDS011;40363;52.270;10.546;2023-08-06T14:32:03;1.70;;;0.98;;
54452;SDS011;40363;52.270;10.546;2023-08-06T14:34:30;1.90;;;1.42;;
54452;SDS011;40363;52.270;10.546;2023-08-06T14:36:56;2.35;;;1.35;;
54452;SDS011;40363;52.270;10.546;2023-08-06T14:39:25;1.30;;;1.05;;
54452;SDS011;40363;52.270;10.546;2023-08-06T14:41:52;1.65;;;1.20;;
54452;SDS011;40363;52.270;10.546;2023-08-06T14:44:18;4.25;;;1.30;;
54452;SDS011;40363;52.270;10.546;2023-08-06T14:46:45;1.40;;;1.17;;